Anco, KY

7:18 PM EDT on July 22, 2014 (GMT -0400)
RAWS PRAWS 12 KY US (MSFUA3) Elev 1974 ft | 37.15 °N, 82.64 °W | Change Station

Current weather conditions updated 31 minutes ago

Clear
Clear
78 °F
Feels Like 80 °F
N
0
Wind Variable Wind from North
Gusts 8.0 mph

Tomorrow is forecast to be nearly the same temperature as today. Afternoon showers and thunderstorms.

Today
High -- | Low -- °F
--% Chance of Precip.
Yesterday
High -- | Low -- °F
Precip. -- in
6:28 AM 8:47 PM
Waning Crescent, 14% visible
Pressure 30.04 in
Visibility 10.0 miles
Clouds Clear
Heat Index 80 °F
Dew Point 67 °F
Humidity 69%
Rainfall 0.16 in
Snow Depth Not available.
UV 2 out of 12
Pollen 3.40 out of 12
Air Quality Not available.
Flu Activity Not available.
METAR KJKL 222253Z AUTO 00000KT 10SM CLR 31/20 A3009 RMK AO2 SLP173 T03060200

More Conditions Fewer Conditions

Pressure 30.04 in
Visibility 10.0 miles
Clouds Clear
Heat Index 80 °F
Dew Point 67 °F
Humidity 69%
Rainfall 0.16 in
Snow Depth Not available.
UV 2 out of 12
Pollen 3.40 out of 12
Air Quality Not available.
Flu Activity Not available.
METAR KJKL 222253Z AUTO 00000KT 10SM CLR 31/20 A3009 RMK AO2 SLP173 T03060200

More Conditions Fewer Conditions

10-Day Weather Forecast

Almanac

Astronomy

Jul. 22, 2014 Rise Set
Actual Time 6:28 AM EDT 8:47 PM EDT
Civil Twilight 5:59 AM EDT 9:17 PM EDT
Nautical Twilight 5:22 AM EDT 9:53 PM EDT
Astronomical Twilight 4:42 AM EDT 10:33 PM EDT
Moon 3:00 AM EDT 5:25 PM EDT
Length of Visible Light 15h 18m
Length of Day
14h 19m
Tomorrow will be 1m 29s shorter.
Waning Crescent, 14% of the Moon is Illuminated
Today
Waning Crescent
Jul 26
New
Aug 3
First Quarter
Aug 10
Full
Aug 17
Last Quarter

Today's Extremes

State Highs State Lows

Community

WunderPhotos

Upload Photos

1,736,391 photos uploaded!

Nearby

Snow Depth

Station Depth Elevation
No new snow has been reported.

Earthquake Activity

City Distance Mag. Time & Date
No recent earthquake activity has been reported nearby.
Minimum magnitude displayed is 2.5.

Coastal Water Temperatures

Place Temperature
No Stations Reporting

Nearby Weather Stations

Station Location Temp. Heat Index Dew Point Humidity Wind Precip. Elev Updated Type
RAWS PRAWS 12 KY, Jenkins, KY 78 °F 80 °F 67 °F 69% North  at  0 mph 0.00 in / hr 1974 ft 6:47 PM EDT MADIS
Talbert, KY 79.6 °F 84 °F 74 °F 83% North  at  0.0 mph 0.00 in / hr 994 ft 7:15 PM EDT Normal
KYTC_RWIS US-119 @ Pine Mountain (Whites, Eolia, KY 69 °F - 62 °F 80% SSE  at  2 mph 0.00 in / hr 2612 ft 6:20 PM EDT MADIS

Show More Stations Show Fewer Stations